Home > Products > Valid Products > TAF

000
FTUS45 KABQ 301340 AAA
TAFROW
TAF AMD
KROW 301340Z 3014/3112 17007KT P6SM OVC025
      TEMPO 3014/3016 OVC035
     FM301600 18010KT P6SM SCT060 SCT150
     FM302000 17014G24KT P6SM VCTS SCT070CB BKN150
     FM310200 21010KT P6SM VCSH BKN070 BKN120=



000
FTUS45 KABQ 301339 AAA
TAFLVS
TAF AMD
KLVS 301339Z 3014/3112 20012KT P6SM SCT015 SCT140
     FM301600 20012G22KT P6SM SCT060 SCT140
     FM302000 20020G30KT P6SM VCSH BKN090 BKN140
     FM310200 16010KT P6SM SCT080 BKN120=



000
FTUS45 KABQ 301124
TAFTCC
TAF
KTCC 301124Z 3012/3112 20006KT 5SM BR BKN020
      TEMPO 3012/3014 1/2SM FG
     FM301500 21010KT P6SM SCT060 SCT150
     FM301900 23015G25KT P6SM VCTS SCT060CB BKN120
     FM310200 17013KT P6SM FEW060 SCT120=



000
FTUS45 KABQ 301124
TAFLVS
TAF
KLVS 301124Z 3012/3112 20012KT P6SM SCT010 OVC015
      TEMPO 3012/3014 5SM BR OVC009
     FM301600 20012G22KT P6SM SCT060 SCT140
     FM302000 20020G30KT P6SM VCSH BKN090 BKN140
     FM310200 16010KT P6SM SCT080 BKN120=



000
FTUS45 KABQ 301124
TAFFMN
TAF
KFMN 301124Z 3012/3112 08006KT P6SM FEW120
     FM301800 23007KT P6SM SCT120
     FM302100 27012G18KT P6SM SCT090 SCT140
     FM310200 30006KT P6SM SCT140
     FM310600 07006KT P6SM SCT120=



000
FTUS45 KABQ 301124
TAFROW
TAF
KROW 301124Z 3012/3112 19007KT P6SM BKN020 OVC035
      TEMPO 3012/3014 OVC012
     FM301600 18010KT P6SM SCT060 SCT150
     FM302000 17014G24KT P6SM VCTS SCT070CB BKN150
     FM310200 21010KT P6SM VCSH BKN070 BKN120=



000
FTUS45 KABQ 301124
TAFGUP
TAF
KGUP 301124Z 3012/3112 VRB06KT P6SM SCT150
     FM301700 23008KT P6SM SCT090 SCT150
     FM302100 25012G18KT P6SM SCT090 SCT140
     FM310200 27006KT P6SM BKN120=



000
FTUS45 KABQ 301124
TAFSAF
TAF
KSAF 301124Z 3012/3112 14010KT P6SM FEW025 SCT140
     FM301600 16007KT P6SM FEW060 SCT150
     FM301900 22012G20KT P6SM SCT080 SCT150
     FM310200 12010KT P6SM BKN120
     FM310700 36008KT P6SM BKN120=



000
FTUS45 KABQ 301124
TAFABQ
TAF
KABQ 301124Z 3012/3112 36007KT P6SM FEW060 SCT140
     FM301700 23006KT P6SM FEW080 SCT150
     FM302100 22012G20KT P6SM SCT080 SCT130
     FM310200 21008KT P6SM BKN120
     FM310400 11008KT P6SM BKN100=



000
FTUS45 KABQ 300419 AAA
TAFROW
TAF AMD
KROW 300419Z 3004/3024 11011KT P6SM SCT120
     FM301000 13007KT P6SM BKN020
     FM301600 18010KT P6SM SKC=



000
FTUS45 KABQ 300419 AAA
TAFLVS
TAF AMD
KLVS 300419Z 3004/3024 14012G18KT P6SM SCT120
     FM300800 16008KT P6SM SKC
      TEMPO 3010/3014 SCT015
     FM301800 20016G26KT P6SM SCT100=



000
FTUS45 KABQ 290535
TAFTCC
TAF
KTCC 290535Z 2906/3006 16007KT P6SM FEW120
     FM291000 19008KT P6SM SCT015
      TEMPO 2910/2914 BKN015
     FM291400 21010KT P6SM FEW040
     FM291700 19014G23KT P6SM SCT060
     FM292000 18016G26KT P6SM VCTS BKN080CB=



000
FTUS45 KABQ 290535
TAFLVS
TAF
KLVS 290535Z 2906/3006 16008KT P6SM SCT120
     FM291200 12006KT P6SM FEW120
     FM291700 19015G25KT P6SM SCT100
     FM292000 19020G32KT P6SM SCT120=



000
FTUS45 KABQ 290535
TAFFMN
TAF
KFMN 290535Z 2906/3006 04006KT P6SM VCSH BKN120
     FM290900 09009KT P6SM FEW120
     FM291600 13006KT P6SM SKC
     FM292000 22011KT P6SM SCT150=



000
FTUS45 KABQ 290535
TAFROW
TAF
KROW 290535Z 2906/3006 15007KT P6SM SKC
     FM291000 16007KT P6SM SCT015
      TEMPO 2910/2914 BKN015
     FM291600 16010KT P6SM SCT040
     FM292000 19020G30KT P6SM VCTS BKN060CB=



000
FTUS45 KABQ 290535
TAFABQ
TAF
KABQ 290535Z 2906/3006 36006KT P6SM SCT150
     FM290900 09006KT P6SM FEW200
     FM291200 05006KT P6SM SKC
     FM291800 20008KT P6SM FEW150
     FM292100 22010G18KT P6SM SCT150=



000
FTUS45 KABQ 290535
TAFSAF
TAF
KSAF 290535Z 2906/3006 02008KT P6SM BKN150
     FM291200 07010KT P6SM FEW120
     FM291800 19011G20KT P6SM FEW120
     FM292100 23013G23KT P6SM SCT120=



000
FTUS45 KABQ 290535
TAFGUP
TAF
KGUP 290535Z 2906/3006 36007KT P6SM SCT120
     FM290800 VRB03KT P6SM FEW120
     FM291800 22010KT P6SM FEW120
     FM292100 23012G21KT P6SM SCT150=



000
FTUS45 KABQ 282330
TAFLVS
TAF
KLVS 282330Z 2900/2924 23010G17KT P6SM BKN110
     FM290200 17008KT P6SM SCT120
     FM290900 15006KT P6SM FEW120
     FM291700 19015G25KT P6SM SCT100
     FM292000 19020G32KT P6SM SCT120=



000
FTUS45 KABQ 282330
TAFSAF
TAF
KSAF 282330Z 2900/2924 24010G18KT P6SM BKN120
     FM290200 10006KT P6SM SCT120
     FM290800 02008KT P6SM SKC
     FM291800 19012G20KT P6SM SCT120=



000
FTUS45 KABQ 282330
TAFTCC
TAF
KTCC 282330Z 2900/2924 20010G17KT P6SM SCT110
     FM290200 16007KT P6SM FEW120
      TEMPO 2909/2913 SCT015
     FM291400 21010KT P6SM FEW050
     FM291700 19014G23KT P6SM SCT060
     FM292000 18016G26KT P6SM VCTS BKN080CB=



000
FTUS45 KABQ 282330
TAFABQ
TAF
KABQ 282330Z 2900/2924 24008KT P6SM SCT100
     FM290200 13007KT P6SM SCT120
     FM290900 VRB03KT P6SM SKC
     FM291800 20008KT P6SM FEW150=



000
FTUS45 KABQ 282330
TAFGUP
TAF
KGUP 282330Z 2900/2924 22007KT P6SM VCSH BKN100
     FM290300 12006KT P6SM BKN120
     FM290800 VRB03KT P6SM SCT120
     FM291800 22010KT P6SM FEW120
     FM292100 23013G22KT P6SM SCT150=



000
FTUS45 KABQ 282330
TAFFMN
TAF
KFMN 282330Z 2900/2924 25008KT P6SM SCT120
     FM290200 07006KT P6SM BKN120
     FM291000 09009KT P6SM FEW120
     FM291600 13006KT P6SM SKC
     FM292000 20008KT P6SM SCT150=



000
FTUS45 KABQ 282330
TAFROW
TAF
KROW 282330Z 2900/2924 15008KT P6SM SKC
     FM291000 16007KT P6SM SCT015
      TEMPO 2910/2914 BKN015
     FM291600 16010KT P6SM SCT040
     FM292000 19020G30KT P6SM VCTS BKN060CB=



000
FTUS45 KABQ 281737
TAFGUP
TAF
KGUP 281737Z 2818/2918 21006KT P6SM SCT090
     FM282100 23011KT P6SM BKN100
     FM290200 12007KT P6SM VCSH BKN110
     FM290600 VRB04KT P6SM SCT120=



000
FTUS45 KABQ 281737
TAFSAF
TAF
KSAF 281737Z 2818/2918 22008KT P6SM FEW090
     FM282000 24010G18KT P6SM BKN100
     FM290200 VRB05KT P6SM SCT110
     FM290600 12010KT P6SM SKC=



000
FTUS45 KABQ 281737
TAFFMN
TAF
KFMN 281737Z 2818/2918 VRB05KT P6SM FEW100
     FM282100 25010KT P6SM SCT110
     FM290200 07006KT P6SM BKN120
     FM291200 09008KT P6SM SCT150=



000
FTUS45 KABQ 281737
TAFABQ
TAF
KABQ 281737Z 2818/2918 18007KT P6SM FEW090
     FM282000 21011KT P6SM SCT110
     FM290200 14007KT P6SM SCT120
     FM290900 VRB04KT P6SM SKC=



000
FTUS45 KABQ 281737
TAFTCC
TAF
KTCC 281737Z 2818/2918 VRB05KT P6SM SKC
     FM282030 20010G17KT P6SM FEW110
     FM290200 16007KT P6SM SKC
     FM291300 16007KT P6SM SCT014=



000
FTUS45 KABQ 281737
TAFLVS
TAF
KLVS 281737Z 2818/2918 21016G26KT P6SM SCT100
     FM290200 17008KT P6SM BKN120
     FM290900 15006KT P6SM FEW120=



000
FTUS45 KABQ 281737
TAFROW
TAF
KROW 281737Z 2818/2918 16008KT P6SM SKC
     FM282030 16013KT P6SM FEW110
     FM291200 16007KT P6SM OVC012
     FM291600 16012KT P6SM SKC=



    US Dept of Commerce
    National Oceanic and Atmospheric Administration
    National Weather Service
    1325 East West Highway
    Silver Spring, MD 20910
    Page Author: NWS Internet Services Team
Disclaimer
Information Quality
Credits
Glossary
Privacy Policy
Freedom of Information Act (FOIA)
About Us
Career Opportunities